EGJJMWCR

Guest
Details From EGJJ - Jersey
To MWCR - Owen Roberts Intl
Flight Number -
Tags Generated
Created
Modified
Stats Distance 4,116 nm / 7,624 km
Max Altitude 0 ft / 0 m
Waypoints 7
Social Downloads 1
Likes 0
Share VATSIM

Download

Looking for another format? Having issues loading an existing format? Contact us
Advertisement - Login to hide

Notes

Generated

Route

EGJJ RATKA QRTET DONEZ G GCM MWCR

ID Type Via Altitude Latitude Longitude Leg Dist Tot Dist Heading (true) Name
O EGJJ APT - 0 ft / 0 m 49.20699˚ -2.20693˚ - 0 nm - -
RATKA FIX - 0 ft / 0 m 49.50000˚ -8.00000˚ 227 nm 227 nm 277° / 272° -
QRTET FIX - 0 ft / 0 m 31.75225˚ -67.07736˚ 2813 nm 3040 nm 271° / 230° -
DONEZ FIX - 0 ft / 0 m 24.26294˚ -76.28250˚ 663 nm 3703 nm 230° / 225° -
G NDB - 0 ft / 0 m 22.01610˚ -78.81356˚ 194 nm 3898 nm 227° / 226° CIEGO DE AVILA NDB
GCM VOR - 0 ft / 0 m 19.28939˚ -81.37203˚ 217 nm 4116 nm 222° / 221° GRAND CAYMAN VOR-DME
O MWCR APT - 0 ft / 0 m 19.29042˚ -81.36764˚ 0 nm 4116 nm 76° / 76° -

Altitude Profile

Advertisement - Login to hide

Weather


0- 5 10 15 20 25 30 35+ Temperature / ° C

Clouds and Precipitation
Forecast for 2018-05-24 00:00 UTC. Updated 3 hours ago

Ground ~20,000 ft ~40,000 ft Winds

EGJJ

Details ICAO EGJJ (JER)
Name Jersey
Region United Kingdom
Timezone Europe/Jersey (UTC+1.0)
Stats Elevation 277 ft / 84 m (AMSL)
Location 49.207964° -2.195294°
Runways 1
Magnetic Variation 0.841° W

METAR

EGJJ 240220Z AUTO 05003KT 6000 HZ BKN011/// BKN029/// 12/11 Q1019

Decode

TAF

Not found

Departure Runways

ID Width Length Bearing (true) Bearing (mag) Surface Threshold Offset Overrun Length
09 151 ft / 46 m 5,593 ft / 1,705 m 82.73° 83.57° Asphalt 200 ft / 61 m 0 ft / 0 m
27 151 ft / 46 m 5,593 ft / 1,705 m 262.74° 263.58° Asphalt 302 ft / 92 m 0 ft / 0 m

MWCR

Details ICAO MWCR (GCM)
Name Owen Roberts Intl
Region Cayman Islands
Timezone America/Cayman (UTC-5.0)
Stats Elevation 7 ft / 2 m (AMSL)
Location 19.292776° -81.357760°
Runways 1
Magnetic Variation 5.043° W

METAR

MWCR 240200Z 08006KT 9999 FEW016 26/26 Q1015

Decode

TAF

TAF TAF MWCR 240300Z 2400/2424 CNL

Decode

Destination Runways

ID Width Length Bearing (true) Bearing (mag) Surface Threshold Offset Overrun Length
08 148 ft / 45 m 7,016 ft / 2,139 m 75.84° 80.88° Asphalt 0 ft / 0 m 0 ft / 0 m
26 148 ft / 45 m 7,016 ft / 2,139 m 255.85° 260.89° Asphalt 400 ft / 122 m 0 ft / 0 m